Time;durP1;ratioP1;P1;durP2;ratioP2;P2;SDS_P1;SDS_P2;PMS_P1;PMS_P2;Temp;Humidity;BMP_temperature;BMP_pressure;BME280_temperature;BME280_humidity;BME280_pressure;Samples;Min_cycle;Max_cycle;Signal;HPM_P1;HPM_P2
2023/05/04 00:00:33;;;;;;;;;;;;;;;11.95;85.56;101509.00;4952370;28;19980;-88
2023/05/04 00:03:02;;;;;;;;;;;;;;;11.92;84.96;101497.69;4948427;28;19995;-91
2023/05/04 00:05:28;;;;;;;;;;;;;;;11.80;86.15;101468.22;4956890;28;19930;-88
2023/05/04 00:07:54;;;;;;;;;;;;;;;11.73;87.10;101460.84;4943408;28;19961;-89
2023/05/04 00:10:20;;;;;;;;;;;;;;;11.70;87.77;101451.22;4940057;28;20012;-90
2023/05/04 00:12:51;;;;;;;;;;;;;;;11.74;88.10;101431.06;4946767;28;20366;-89
2023/05/04 00:15:16;;;;;;;;;;;;;;;11.75;87.96;101456.16;4937634;28;19926;-88
2023/05/04 00:17:41;;;;;;;;;;;;;;;11.70;86.29;101450.38;4917816;28;19948;-89
2023/05/04 00:20:07;;;;;;;;;;;;;;;11.55;88.27;101458.94;4948444;28;19924;-88
2023/05/04 00:22:32;;;;;;;;;;;;;;;11.39;87.70;101499.97;4953170;28;20387;-91
2023/05/04 00:24:58;;;;;;;;;;;;;;;11.52;86.75;101478.13;4931147;28;19922;-91
2023/05/04 00:27:24;;;;;;;;;;;;;;;11.59;86.63;101457.66;4943253;28;19934;-88
2023/05/04 00:29:51;;;;;;;;;;;;;;;11.67;87.02;101461.47;4939929;28;19997;-88
2023/05/04 00:32:16;;;;;;;;;;;;;;;11.62;86.84;101453.81;4957991;28;20367;-89
2023/05/04 00:34:42;;;;;;;;;;;;;;;11.75;87.25;101464.25;4931019;28;19926;-89
2023/05/04 00:37:29;;;;;;;;;;;;;;;11.78;87.55;101458.59;4947588;28;20048;-88
2023/05/04 00:39:55;;;;;;;;;;;;;;;11.86;87.15;101455.97;4934294;28;20032;-92
2023/05/04 00:42:20;;;;;;;;;;;;;;;11.88;86.95;101440.53;4935543;28;20391;-91
2023/05/04 00:44:49;;;;;;;;;;;;;;;11.95;86.93;101435.41;4924744;28;19930;-92
2023/05/04 00:47:18;;;;;;;;;;;;;;;12.02;85.23;101431.09;4939168;28;20004;-90
2023/05/04 00:49:46;;;;;;;;;;;;;;;12.09;85.19;101428.66;4936591;28;20053;-92
2023/05/04 00:52:15;;;;;;;;;;;;;;;12.07;85.04;101431.50;4943046;28;20017;-90
2023/05/04 00:54:41;;;;;;;;;;;;;;;12.08;84.99;101421.53;4933496;28;20312;-90
2023/05/04 00:57:07;;;;;;;;;;;;;;;12.10;84.10;101406.91;4941474;28;19936;-93
2023/05/04 00:59:33;;;;;;;;;;;;;;;12.15;83.61;101406.47;4944943;28;19926;-88
2023/05/04 01:01:58;;;;;;;;;;;;;;;12.08;84.85;101405.38;4942260;28;19942;-90
2023/05/04 01:04:24;;;;;;;;;;;;;;;12.15;85.16;101412.72;4941401;28;19934;-87
2023/05/04 01:06:50;;;;;;;;;;;;;;;12.14;85.67;101399.38;4959272;28;19926;-91
2023/05/04 01:09:24;;;;;;;;;;;;;;;12.26;83.97;101403.53;4960558;28;19922;-89
2023/05/04 01:11:57;;;;;;;;;;;;;;;12.20;83.09;101406.88;4946176;28;19996;-88
2023/05/04 01:14:23;;;;;;;;;;;;;;;12.17;83.65;101407.16;4967838;28;19926;-88
2023/05/04 01:16:49;;;;;;;;;;;;;;;12.25;83.78;101402.69;4949079;28;19953;-91
2023/05/04 01:19:15;;;;;;;;;;;;;;;12.22;83.05;101396.75;4972749;28;19922;-90
2023/05/04 01:21:41;;;;;;;;;;;;;;;12.15;83.39;101404.63;4937159;28;20047;-89
2023/05/04 01:24:10;;;;;;;;;;;;;;;12.08;84.63;101405.38;4959518;28;19941;-88
2023/05/04 01:26:40;;;;;;;;;;;;;;;12.18;84.50;101403.47;4960094;28;19928;-91
2023/05/04 01:29:18;;;;;;;;;;;;;;;12.16;84.00;101410.88;4940710;28;19949;-89
2023/05/04 01:31:44;;;;;;;;;;;;;;;12.11;85.12;101414.03;4938947;28;19937;-87
2023/05/04 01:34:16;;;;;;;;;;;;;;;11.97;83.30;101410.00;4956782;28;19925;-91
2023/05/04 01:36:45;;;;;;;;;;;;;;;12.00;83.78;101412.38;4965711;28;20426;-89
2023/05/04 01:39:10;;;;;;;;;;;;;;;11.99;84.92;101418.78;4955567;28;19937;-89
2023/05/04 01:41:37;;;;;;;;;;;;;;;12.15;84.60;101422.63;4942203;28;19934;-89
2023/05/04 01:44:06;;;;;;;;;;;;;;;12.17;84.80;101424.16;4941340;28;19926;-87
2023/05/04 01:46:31;;;;;;;;;;;;;;;12.28;84.87;101427.66;4957021;28;21731;-89
2023/05/04 01:48:57;;;;;;;;;;;;;;;12.23;85.00;101414.66;4926994;28;20044;-88
2023/05/04 01:51:25;;;;;;;;;;;;;;;12.32;85.06;101405.63;4958263;28;19930;-91
2023/05/04 01:53:52;;;;;;;;;;;;;;;12.33;84.87;101390.28;4962789;28;19941;-88
2023/05/04 01:56:18;;;;;;;;;;;;;;;12.39;85.34;101389.69;4936355;28;19953;-90
2023/05/04 01:58:43;;;;;;;;;;;;;;;12.46;84.98;101382.66;4940860;28;19926;-90
2023/05/04 02:01:10;;;;;;;;;;;;;;;12.45;85.29;101381.84;4917604;28;20040;-88
2023/05/04 02:03:35;;;;;;;;;;;;;;;12.38;85.74;101369.94;4929755;28;19934;-90
2023/05/04 02:06:02;;;;;;;;;;;;;;;12.33;85.42;101366.88;4944805;28;19929;-91
2023/05/04 02:08:28;;;;;;;;;;;;;;;12.44;85.43;101374.72;4939186;28;19923;-91
2023/05/04 02:10:54;;;;;;;;;;;;;;;12.50;83.26;101367.00;4941371;28;19929;-91
2023/05/04 02:13:19;;;;;;;;;;;;;;;12.53;82.85;101361.31;4941239;28;19926;-92
2023/05/04 02:15:46;;;;;;;;;;;;;;;12.57;83.08;101358.16;4944366;28;20346;-90
2023/05/04 02:18:11;;;;;;;;;;;;;;;12.61;82.24;101362.22;4925109;28;19965;-92
2023/05/04 02:20:36;;;;;;;;;;;;;;;12.61;80.47;101353.28;4947351;28;19965;-90
2023/05/04 02:23:03;;;;;;;;;;;;;;;12.61;81.31;101362.22;4973411;28;19981;-87
2023/05/04 02:25:30;;;;;;;;;;;;;;;12.44;82.61;101363.94;4961018;28;19925;-90
2023/05/04 02:27:55;;;;;;;;;;;;;;;12.51;83.27;101358.78;4966657;28;19926;-91
2023/05/04 02:30:21;;;;;;;;;;;;;;;12.46;83.91;101364.63;4952261;28;19922;-88
2023/05/04 02:32:47;;;;;;;;;;;;;;;12.61;83.36;101364.06;4937664;28;19980;-88
2023/05/04 02:35:13;;;;;;;;;;;;;;;12.65;82.43;101365.44;4972483;28;19969;-87
2023/05/04 02:37:42;;;;;;;;;;;;;;;12.70;81.52;101371.22;4941621;28;20491;-92
2023/05/04 02:40:09;;;;;;;;;;;;;;;12.66;81.42;101373.38;4951992;28;19930;-91
2023/05/04 02:42:35;;;;;;;;;;;;;;;12.57;83.15;101378.88;4948713;28;19922;-90
2023/05/04 02:45:00;;;;;;;;;;;;;;;12.59;82.76;101379.56;4972362;28;20347;-91
2023/05/04 02:47:26;;;;;;;;;;;;;;;12.56;83.14;101382.56;4950834;28;20379;-90
2023/05/04 02:49:51;;;;;;;;;;;;;;;12.27;84.75;101399.88;4973800;28;19922;-90
2023/05/04 02:52:17;;;;;;;;;;;;;;;12.38;84.57;101402.31;4970721;28;19923;-90
2023/05/04 02:54:48;;;;;;;;;;;;;;;12.36;85.18;101409.72;4954565;28;19922;-91
2023/05/04 02:57:14;;;;;;;;;;;;;;;12.40;85.60;101415.63;4966565;28;19961;-92
2023/05/04 02:59:40;;;;;;;;;;;;;;;12.38;85.63;101423.88;4934074;28;19980;-91
2023/05/04 03:02:06;;;;;;;;;;;;;;;12.36;85.95;101425.91;4967902;28;19933;-90
2023/05/04 03:04:33;;;;;;;;;;;;;;;12.43;85.19;101434.19;4958919;28;20399;-89
2023/05/04 03:07:00;;;;;;;;;;;;;;;12.44;84.80;101431.34;4972579;28;19926;-88
2023/05/04 03:09:28;;;;;;;;;;;;;;;12.35;85.31;101445.75;4942547;28;19922;-90
2023/05/04 03:11:55;;;;;;;;;;;;;;;12.43;85.25;101453.94;4972094;28;19929;-91
2023/05/04 03:14:21;;;;;;;;;;;;;;;12.30;85.97;101461.56;4966274;28;20012;-90
2023/05/04 03:16:54;;;;;;;;;;;;;;;12.35;86.05;101470.03;4946806;28;19981;-91
2023/05/04 03:19:21;;;;;;;;;;;;;;;12.22;86.41;101462.31;4954685;28;20378;-88
2023/05/04 03:21:47;;;;;;;;;;;;;;;12.13;86.22;101467.78;4965595;28;20089;-90
2023/05/04 03:24:16;;;;;;;;;;;;;;;11.99;87.07;101466.44;4971182;28;20036;-88
2023/05/04 03:26:41;;;;;;;;;;;;;;;11.85;87.92;101470.47;4957758;28;20017;-88
2023/05/04 03:29:09;;;;;;;;;;;;;;;11.86;88.08;101482.06;4961422;28;19962;-87
2023/05/04 03:31:39;;;;;;;;;;;;;;;11.95;87.55;101490.13;4955574;28;20024;-89
2023/05/04 03:34:13;;;;;;;;;;;;;;;11.87;87.75;101495.44;4959995;28;20140;-89
2023/05/04 03:36:41;;;;;;;;;;;;;;;11.92;87.29;101501.22;4938305;28;20429;-90
2023/05/04 03:39:12;;;;;;;;;;;;;;;11.97;86.57;101496.22;4950681;28;20054;-89
2023/05/04 03:41:37;;;;;;;;;;;;;;;11.88;86.94;101474.72;4942307;28;19928;-92
2023/05/04 03:44:02;;;;;;;;;;;;;;;11.69;88.42;101459.47;4955155;28;20024;-90
2023/05/04 03:46:29;;;;;;;;;;;;;;;11.74;88.61;101467.94;4939298;28;19926;-91
2023/05/04 03:48:57;;;;;;;;;;;;;;;11.89;88.37;101477.25;4938293;28;20311;-89
2023/05/04 03:51:22;;;;;;;;;;;;;;;11.97;87.84;101488.16;4935134;28;19922;-90
2023/05/04 03:53:49;;;;;;;;;;;;;;;12.14;87.63;101496.44;4937029;28;19986;-91
2023/05/04 03:56:16;;;;;;;;;;;;;;;12.14;86.96;101501.81;4933286;28;19926;-93
2023/05/04 03:58:42;;;;;;;;;;;;;;;12.15;86.51;101500.81;4936350;28;19926;-92
2023/05/04 04:01:08;;;;;;;;;;;;;;;12.06;87.57;101520.56;4962439;28;20044;-91
2023/05/04 04:03:37;;;;;;;;;;;;;;;12.09;87.42;101536.47;4960619;28;20032;-91
2023/05/04 04:06:04;;;;;;;;;;;;;;;12.12;87.11;101530.75;4941347;28;21677;-89
2023/05/04 04:08:31;;;;;;;;;;;;;;;12.33;86.47;101517.88;4940160;28;20968;-90
2023/05/04 04:11:00;;;;;;;;;;;;;;;12.46;85.99;101518.34;4951479;28;19961;-91
2023/05/04 04:13:26;;;;;;;;;;;;;;;12.34;85.53;101522.28;4957849;28;19926;-88
2023/05/04 04:15:52;;;;;;;;;;;;;;;12.42;85.71;101516.13;4937880;28;20275;-88
2023/05/04 04:18:21;;;;;;;;;;;;;;;12.50;85.23;101512.66;4930441;28;19930;-90
2023/05/04 04:20:46;;;;;;;;;;;;;;;12.44;85.02;101504.19;4962943;28;19968;-87
2023/05/04 04:23:17;;;;;;;;;;;;;;;12.29;84.91;101500.31;4933680;29;20295;-89
2023/05/04 04:25:43;;;;;;;;;;;;;;;12.26;85.05;101500.59;4956260;28;19922;-87
2023/05/04 04:28:09;;;;;;;;;;;;;;;12.09;86.49;101509.50;4982209;28;19952;-85
2023/05/04 04:30:38;;;;;;;;;;;;;;;12.16;86.25;101505.22;4971729;28;19926;-89
2023/05/04 04:33:25;;;;;;;;;;;;;;;12.25;85.87;101507.84;4966897;28;19929;-88
2023/05/04 04:35:52;;;;;;;;;;;;;;;12.29;85.58;101516.50;4955083;28;20616;-90
2023/05/04 04:38:18;;;;;;;;;;;;;;;12.36;84.99;101522.97;4935399;28;19930;-89
2023/05/04 04:40:46;;;;;;;;;;;;;;;12.28;84.74;101525.56;4934093;28;19918;-90
2023/05/04 04:43:11;;;;;;;;;;;;;;;12.15;85.18;101535.84;4938286;28;20161;-89
2023/05/04 04:45:38;;;;;;;;;;;;;;;12.19;85.88;101556.13;4924779;28;20057;-89
2023/05/04 04:48:05;;;;;;;;;;;;;;;12.34;84.49;101565.41;4937296;28;19972;-89
2023/05/04 04:50:35;;;;;;;;;;;;;;;12.43;83.61;101542.06;4942751;28;19934;-88
2023/05/04 04:53:00;;;;;;;;;;;;;;;12.58;83.75;101543.25;4929278;28;19972;-90
2023/05/04 04:55:26;;;;;;;;;;;;;;;12.50;84.53;101539.63;4946238;28;19922;-90
2023/05/04 04:57:51;;;;;;;;;;;;;;;12.55;84.43;101531.91;4957811;28;20005;-91
2023/05/04 05:00:17;;;;;;;;;;;;;;;12.67;84.06;101525.31;4959116;28;20039;-89
2023/05/04 05:02:45;;;;;;;;;;;;;;;12.75;83.86;101521.84;4951640;28;19980;-88
2023/05/04 05:05:12;;;;;;;;;;;;;;;12.77;84.26;101514.44;4951197;28;19922;-88
2023/05/04 05:07:39;;;;;;;;;;;;;;;12.72;84.43;101511.38;4960282;28;19926;-87
2023/05/04 05:10:05;;;;;;;;;;;;;;;12.89;83.89;101502.41;4969442;28;19948;-88
2023/05/04 05:12:36;;;;;;;;;;;;;;;12.92;83.64;101501.25;4952850;28;20399;-90
2023/05/04 05:15:03;;;;;;;;;;;;;;;13.05;83.48;101501.69;4963778;28;19993;-90
2023/05/04 05:17:36;;;;;;;;;;;;;;;13.20;84.03;101481.22;4952356;28;20328;-88
2023/05/04 05:20:01;;;;;;;;;;;;;;;13.20;84.38;101475.81;4968067;28;19961;-86
2023/05/04 05:22:27;;;;;;;;;;;;;;;13.15;83.25;101480.84;4976561;28;19973;-90
2023/05/04 05:24:52;;;;;;;;;;;;;;;12.97;83.95;101472.78;4948564;28;19918;-91
2023/05/04 05:27:17;;;;;;;;;;;;;;;12.98;84.39;101468.25;4950069;29;20382;-91
2023/05/04 05:29:44;;;;;;;;;;;;;;;12.84;86.03;101458.84;4973207;28;19927;-90
2023/05/04 05:32:12;;;;;;;;;;;;;;;12.63;87.15;101449.22;4975998;28;19926;-84
2023/05/04 05:34:38;;;;;;;;;;;;;;;12.45;88.60;101451.06;4982353;28;20298;-88
2023/05/04 05:37:06;;;;;;;;;;;;;;;12.30;89.50;101448.06;4961529;28;19926;-90
2023/05/04 05:39:33;;;;;;;;;;;;;;;12.19;91.43;101459.06;4981425;28;19925;-90
2023/05/04 05:41:59;;;;;;;;;;;;;;;12.06;93.22;101455.88;4970578;28;19925;-91
2023/05/04 05:44:28;;;;;;;;;;;;;;;11.83;93.80;101456.28;4979776;28;19933;-92
2023/05/04 05:46:54;;;;;;;;;;;;;;;11.78;94.87;101454.03;5016233;23;19929;-93
2023/05/04 05:52:09;;;;;;;;;;;;;;;11.74;95.31;101473.34;5186838;23;19925;-91
2023/05/04 05:54:37;;;;;;;;;;;;;;;11.72;96.93;101469.94;4995850;28;19926;-88
2023/05/04 05:57:14;;;;;;;;;;;;;;;11.69;98.88;101464.88;4996544;28;19926;-95
2023/05/04 05:59:41;;;;;;;;;;;;;;;11.80;99.67;101462.81;5016459;28;19913;-92
2023/05/04 06:02:08;;;;;;;;;;;;;;;11.82;99.18;101455.44;5021248;28;20012;-93
2023/05/04 06:04:35;;;;;;;;;;;;;;;11.83;97.71;101448.19;5032581;28;19905;-90
2023/05/04 06:07:01;;;;;;;;;;;;;;;11.85;97.47;101454.28;5001575;28;19956;-90
2023/05/04 06:09:27;;;;;;;;;;;;;;;11.88;96.42;101458.56;4993768;28;19961;-89
2023/05/04 06:11:52;;;;;;;;;;;;;;;11.89;96.05;101454.84;5017522;28;19922;-89
2023/05/04 06:14:17;;;;;;;;;;;;;;;11.77;96.56;101475.72;5011629;28;19917;-89
2023/05/04 06:16:44;;;;;;;;;;;;;;;11.77;99.13;101479.25;4974268;28;19929;-89
2023/05/04 06:19:10;;;;;;;;;;;;;;;11.90;99.96;101473.56;5023184;28;19925;-90
2023/05/04 06:21:37;;;;;;;;;;;;;;;11.93;98.62;101464.34;5022730;28;19944;-89
2023/05/04 06:24:02;;;;;;;;;;;;;;;11.91;99.24;101448.31;5024732;28;19917;-91
2023/05/04 06:26:31;;;;;;;;;;;;;;;11.94;98.96;101441.78;5020935;28;19925;-91
2023/05/04 06:29:00;;;;;;;;;;;;;;;11.97;98.53;101441.50;5041077;28;19928;-90
2023/05/04 06:31:29;;;;;;;;;;;;;;;11.79;98.46;101422.56;5008387;28;19921;-92
2023/05/04 06:33:56;;;;;;;;;;;;;;;11.76;98.97;101404.84;5018417;28;20072;-91
2023/05/04 06:36:26;;;;;;;;;;;;;;;11.66;97.97;101411.28;5027834;28;19928;-94
2023/05/04 06:38:57;;;;;;;;;;;;;;;11.75;98.69;101415.75;5034051;28;19929;-94
2023/05/04 06:41:30;;;;;;;;;;;;;;;11.75;98.98;101415.75;5039906;28;19917;-91
2023/05/04 06:43:58;;;;;;;;;;;;;;;11.81;97.78;101409.78;5016316;28;19929;-94
2023/05/04 06:46:29;;;;;;;;;;;;;;;11.82;97.68;101414.16;5025799;28;19917;-95
2023/05/04 06:49:16;;;;;;;;;;;;;;;11.99;97.82;101407.16;5018065;28;19921;-92
2023/05/04 06:51:44;;;;;;;;;;;;;;;11.91;96.82;101407.91;5010220;28;19932;-92
2023/05/04 06:54:15;;;;;;;;;;;;;;;12.05;97.47;101406.53;5025779;28;20354;-92
2023/05/04 06:56:41;;;;;;;;;;;;;;;12.01;96.90;101397.03;5016348;28;20028;-91
2023/05/04 06:59:08;;;;;;;;;;;;;;;12.06;96.98;101396.59;5000240;28;20004;-93
2023/05/04 07:01:36;;;;;;;;;;;;;;;12.06;96.84;101401.97;5000621;28;19948;-93
2023/05/04 07:04:02;;;;;;;;;;;;;;;12.15;95.21;101396.56;5024948;28;19918;-92
2023/05/04 07:06:31;;;;;;;;;;;;;;;12.37;95.73;101406.00;5024155;28;19917;-90
2023/05/04 07:09:00;;;;;;;;;;;;;;;12.30;93.43;101407.63;5015285;28;19965;-90
2023/05/04 07:11:27;;;;;;;;;;;;;;;12.45;93.69;101387.22;5029466;28;19909;-89
2023/05/04 07:13:54;;;;;;;;;;;;;;;12.39;92.91;101381.59;5002742;28;19944;-92
2023/05/04 07:16:22;;;;;;;;;;;;;;;12.42;92.34;101363.25;5010714;28;19917;-89
2023/05/04 07:18:49;;;;;;;;;;;;;;;12.55;90.86;101360.16;5000045;28;19968;-91
2023/05/04 07:21:15;;;;;;;;;;;;;;;12.95;91.31;101360.59;5008757;28;20380;-93
2023/05/04 07:23:41;;;;;;;;;;;;;;;13.38;89.63;101356.13;4991098;28;19944;-91
2023/05/04 07:26:09;;;;;;;;;;;;;;;13.89;86.56;101349.69;4995986;28;20365;-94
2023/05/04 07:28:37;;;;;;;;;;;;;;;14.19;84.39;101343.81;4995943;28;19917;-92
2023/05/04 07:31:04;;;;;;;;;;;;;;;14.57;82.51;101342.34;5005810;28;19979;-90
2023/05/04 07:33:33;;;;;;;;;;;;;;;15.03;82.24;101342.59;4990088;28;19978;-89
2023/05/04 07:35:59;;;;;;;;;;;;;;;16.32;77.58;101343.06;5021754;28;19964;-91
2023/05/04 07:38:41;;;;;;;;;;;;;;;16.81;81.56;101339.94;5013365;28;20279;-93
2023/05/04 07:41:09;;;;;;;;;;;;;;;17.49;76.52;101341.53;5009758;28;19928;-93
2023/05/04 07:43:34;;;;;;;;;;;;;;;18.04;75.82;101332.97;4981052;28;20397;-94
2023/05/04 07:46:02;;;;;;;;;;;;;;;18.57;65.01;101333.47;4980603;28;19930;-93
2023/05/04 07:48:31;;;;;;;;;;;;;;;18.93;61.95;101329.78;4968614;28;19925;-94
2023/05/04 07:51:23;;;;;;;;;;;;;;;19.57;60.37;101323.16;5004546;28;20273;-93
2023/05/04 07:53:49;;;;;;;;;;;;;;;19.91;59.89;101324.97;4979810;28;19922;-95
2023/05/04 07:56:15;;;;;;;;;;;;;;;20.52;61.40;101321.25;5008191;28;19937;-92
2023/05/04 07:59:08;;;;;;;;;;;;;;;21.03;59.59;101314.28;5003936;28;19931;-91
2023/05/04 08:01:35;;;;;;;;;;;;;;;21.06;57.07;101316.56;5016979;28;19921;-93
2023/05/04 08:04:07;;;;;;;;;;;;;;;21.63;54.46;101311.31;5011093;28;19928;-93
2023/05/04 08:06:41;;;;;;;;;;;;;;;21.80;54.17;101311.69;4988252;28;20354;-94
2023/05/04 08:09:19;;;;;;;;;;;;;;;22.13;49.68;101301.34;5015224;28;19922;-94
2023/05/04 08:11:47;;;;;;;;;;;;;;;22.90;49.00;101295.63;5017113;28;19918;-95
2023/05/04 08:14:40;;;;;;;;;;;;;;;23.70;48.90;101307.53;5021126;28;19918;-94
2023/05/04 08:17:06;;;;;;;;;;;;;;;24.34;47.13;101305.09;5013938;28;20377;-94
2023/05/04 08:19:34;;;;;;;;;;;;;;;25.38;45.54;101293.47;4989826;28;19933;-95
2023/05/04 08:22:03;;;;;;;;;;;;;;;26.36;42.71;101287.84;5001017;28;19921;-92
2023/05/04 08:24:30;;;;;;;;;;;;;;;27.04;40.60;101292.19;5009134;28;19928;-95
2023/05/04 08:27:00;;;;;;;;;;;;;;;27.69;39.84;101289.66;4983165;28;19997;-95
2023/05/04 08:29:43;;;;;;;;;;;;;;;28.48;39.44;101285.44;5003284;28;19936;-94
2023/05/04 08:32:27;;;;;;;;;;;;;;;28.99;37.73;101283.81;5045434;28;19953;-91
2023/05/04 08:35:11;;;;;;;;;;;;;;;29.50;34.32;101279.59;5033155;28;19932;-91
2023/05/04 08:37:38;;;;;;;;;;;;;;;29.99;34.47;101270.84;5028186;28;20413;-95
2023/05/04 08:40:22;;;;;;;;;;;;;;;30.40;34.26;101277.22;5014346;28;19924;-94
2023/05/04 08:42:54;;;;;;;;;;;;;;;30.84;32.30;101264.69;5007047;28;19964;-93
2023/05/04 08:45:34;;;;;;;;;;;;;;;31.02;31.45;101260.44;4994070;28;19917;-95
2023/05/04 08:48:17;;;;;;;;;;;;;;;31.94;30.36;101269.09;4994123;28;19928;-94
2023/05/04 08:51:03;;;;;;;;;;;;;;;32.81;29.75;101261.94;5029051;28;20249;-95
2023/05/04 08:53:34;;;;;;;;;;;;;;;33.28;27.33;101254.66;4993908;28;19988;-95
2023/05/04 08:56:03;;;;;;;;;;;;;;;33.84;27.41;101261.41;4996110;28;19952;-93
2023/05/04 08:58:31;;;;;;;;;;;;;;;34.43;27.03;101256.22;5026108;28;19921;-96
2023/05/04 09:01:37;;;;;;;;;;;;;;;35.03;24.48;101253.38;5004741;28;19916;-93
2023/05/04 09:04:17;;;;;;;;;;;;;;;34.06;25.99;101256.00;5039727;22;19936;-93
2023/05/04 09:06:52;;;;;;;;;;;;;;;33.91;26.94;101255.44;5003495;28;19925;-95
2023/05/04 09:09:18;;;;;;;;;;;;;;;32.93;27.42;101259.53;4983667;28;19976;-94
2023/05/04 09:12:07;;;;;;;;;;;;;;;32.63;28.53;101248.78;4996923;28;20419;-93
2023/05/04 09:15:00;;;;;;;;;;;;;;;32.43;28.09;101244.22;5004624;28;19918;-93
2023/05/04 09:17:46;;;;;;;;;;;;;;;33.55;26.91;101237.28;5009473;28;19957;-93
2023/05/04 09:20:48;;;;;;;;;;;;;;;33.50;26.57;101239.31;5004829;28;19926;-93
2023/05/04 09:23:16;;;;;;;;;;;;;;;32.42;27.42;101248.94;5081084;23;19961;-93
2023/05/04 09:25:49;;;;;;;;;;;;;;;31.85;28.25;101245.81;4988759;28;19960;-93
2023/05/04 09:28:19;;;;;;;;;;;;;;;31.74;28.05;101245.06;5017563;28;19933;-92
2023/05/04 09:31:03;;;;;;;;;;;;;;;30.94;28.97;101239.66;5020618;28;20165;-93
2023/05/04 09:33:34;;;;;;;;;;;;;;;29.59;30.68;101237.22;4993687;28;19921;-92
2023/05/04 09:36:14;;;;;;;;;;;;;;;30.00;30.68;101248.38;4988746;28;19972;-92
2023/05/04 09:38:40;;;;;;;;;;;;;;;28.69;32.81;101242.97;5013996;28;19932;-91
2023/05/04 09:41:08;;;;;;;;;;;;;;;27.94;34.15;101245.72;4998066;28;20096;-92
2023/05/04 09:43:40;;;;;;;;;;;;;;;27.98;34.55;101248.81;4982902;28;19963;-91
2023/05/04 09:46:12;;;;;;;;;;;;;;;27.75;34.28;101252.72;4999547;28;19925;-93
2023/05/04 09:48:37;;;;;;;;;;;;;;;29.24;32.34;101249.06;4998829;28;19921;-93
2023/05/04 09:51:06;;;;;;;;;;;;;;;28.95;32.25;101241.16;4991963;28;19998;-91
2023/05/04 09:53:55;;;;;;;;;;;;;;;27.14;35.01;101273.00;5001535;28;19925;-91
2023/05/04 09:56:46;;;;;;;;;;;;;;;29.02;32.87;101257.53;5011899;28;20008;-92
2023/05/04 09:59:34;;;;;;;;;;;;;;;30.32;30.32;101255.63;5020896;28;19976;-93
2023/05/04 10:02:35;;;;;;;;;;;;;;;29.95;31.07;101262.25;5022337;28;19926;-92
2023/05/04 10:05:08;;;;;;;;;;;;;;;28.93;32.94;101259.16;5007512;28;19917;-91
2023/05/04 10:07:33;;;;;;;;;;;;;;;29.44;31.59;101265.72;4999335;28;20425;-93
2023/05/04 10:10:01;;;;;;;;;;;;;;;30.02;30.82;101260.03;4990781;28;19924;-92
2023/05/04 10:12:29;;;;;;;;;;;;;;;29.24;31.66;101277.59;5025975;28;20373;-93
2023/05/04 10:14:56;;;;;;;;;;;;;;;27.80;34.01;101266.56;4990400;28;19918;-91
2023/05/04 10:18:00;;;;;;;;;;;;;;;27.79;34.77;101265.75;5009502;28;19980;-91
2023/05/04 10:20:33;;;;;;;;;;;;;;;29.64;31.52;101255.78;4952918;29;20021;-90
2023/05/04 10:23:17;;;;;;;;;;;;;;;27.37;34.41;101265.59;4939091;29;19930;-91
2023/05/04 10:25:48;;;;;;;;;;;;;;;26.74;35.86;101246.53;4991990;28;19926;-90
2023/05/04 10:28:23;;;;;;;;;;;;;;;27.40;35.20;101253.19;5011597;28;19921;-92
2023/05/04 10:30:59;;;;;;;;;;;;;;;26.96;35.47;101259.50;5008763;28;20042;-92
2023/05/04 10:33:42;;;;;;;;;;;;;;;26.31;37.01;101259.09;4994447;28;19921;-89
2023/05/04 10:36:41;;;;;;;;;;;;;;;25.48;38.73;101260.66;4971514;28;19977;-89
2023/05/04 10:39:16;;;;;;;;;;;;;;;25.17;39.58;101267.41;5017694;28;19924;-92
2023/05/04 10:42:08;;;;;;;;;;;;;;;24.68;40.54;101250.41;5012184;28;20007;-92
2023/05/04 10:44:56;;;;;;;;;;;;;;;24.54;41.08;101256.16;5013855;28;19913;-89
2023/05/04 10:47:39;;;;;;;;;;;;;;;24.44;41.67;101273.22;5027219;28;19961;-93
2023/05/04 10:50:15;;;;;;;;;;;;;;;23.36;44.16;101265.97;4980262;28;19940;-91
2023/05/04 10:52:58;;;;;;;;;;;;;;;22.75;44.75;101264.97;4992679;28;19948;-91
2023/05/04 10:55:25;;;;;;;;;;;;;;;22.75;45.43;101267.72;4992482;28;19923;-89
2023/05/04 10:57:52;;;;;;;;;;;;;;;23.06;44.79;101282.38;4986082;28;19922;-91
2023/05/04 11:00:17;;;;;;;;;;;;;;;21.41;48.32;101291.66;5003564;28;19925;-86
2023/05/04 11:02:47;;;;;;;;;;;;;;;20.57;50.71;101276.94;5001525;28;19927;-89
2023/05/04 11:05:18;;;;;;;;;;;;;;;20.48;51.12;101270.81;4982028;28;19952;-91
2023/05/04 11:07:44;;;;;;;;;;;;;;;20.81;50.10;101265.34;5012231;28;19985;-91
2023/05/04 11:10:23;;;;;;;;;;;;;;;21.16;49.71;101261.44;4999027;28;19948;-91
2023/05/04 11:12:50;;;;;;;;;;;;;;;21.25;48.96;101271.91;4981520;28;19993;-89
2023/05/04 11:15:15;;;;;;;;;;;;;;;20.35;51.61;101277.16;4983038;28;19934;-91
2023/05/04 11:17:51;;;;;;;;;;;;;;;20.62;50.38;101268.94;5016368;28;19961;-94
2023/05/04 11:20:34;;;;;;;;;;;;;;;20.39;51.39;101272.97;5002835;28;20142;-95
2023/05/04 11:23:02;;;;;;;;;;;;;;;20.32;52.24;101282.19;5014800;28;19928;-92
2023/05/04 11:25:46;;;;;;;;;;;;;;;20.23;52.10;101273.38;5007040;28;19935;-95
2023/05/04 11:28:18;;;;;;;;;;;;;;;19.94;53.27;101264.53;4999386;28;20062;-93
2023/05/04 11:31:04;;;;;;;;;;;;;;;19.72;54.04;101260.31;4967073;28;19925;-95
2023/05/04 11:33:54;;;;;;;;;;;;;;;19.42;54.63;101260.59;5008007;28;19922;-93
2023/05/04 11:36:27;;;;;;;;;;;;;;;19.14;55.66;101258.81;5084695;23;19932;-93
2023/05/04 11:39:09;;;;;;;;;;;;;;;19.59;53.88;101261.91;5046889;28;19921;-93
2023/05/04 11:42:15;;;;;;;;;;;;;;;20.01;53.97;101257.19;5016809;28;19933;-91
2023/05/04 11:44:45;;;;;;;;;;;;;;;20.62;51.34;101266.22;5059953;23;19926;-92
2023/05/04 11:47:10;;;;;;;;;;;;;;;20.18;52.47;101264.94;4996424;28;20369;-93
2023/05/04 11:49:44;;;;;;;;;;;;;;;19.63;54.69;101264.25;5004652;28;19937;-93
2023/05/04 11:52:11;;;;;;;;;;;;;;;19.50;54.70;101271.34;5001390;28;19992;-93
2023/05/04 11:54:46;;;;;;;;;;;;;;;18.80;55.76;101257.00;4996482;28;19985;-94
2023/05/04 11:57:40;;;;;;;;;;;;;;;19.15;55.44;101276.88;4983205;28;19926;-93
2023/05/04 12:00:48;;;;;;;;;;;;;;;19.08;56.59;101270.56;5023546;28;19921;-93
2023/05/04 12:03:41;;;;;;;;;;;;;;;18.18;58.00;101274.94;5003271;28;19917;-94
2023/05/04 12:06:28;;;;;;;;;;;;;;;18.05;59.47;101266.63;5021334;28;19941;-95
2023/05/04 12:09:15;;;;;;;;;;;;;;;18.70;57.92;101261.91;5008702;28;19949;-95
2023/05/04 12:11:56;;;;;;;;;;;;;;;19.15;56.33;101249.63;5014702;28;19932;-94
2023/05/04 12:14:32;;;;;;;;;;;;;;;18.95;56.61;101257.69;4997328;28;19933;-94
2023/05/04 12:17:42;;;;;;;;;;;;;;;18.12;58.27;101256.66;5020103;28;19924;-92
2023/05/04 12:20:22;;;;;;;;;;;;;;;17.78;59.27;101258.19;5019443;28;19992;-91
2023/05/04 12:22:54;;;;;;;;;;;;;;;18.19;58.21;101271.19;4999803;28;19918;-91
2023/05/04 12:25:51;;;;;;;;;;;;;;;18.35;58.08;101253.69;5012198;28;20012;-94
2023/05/04 12:28:59;;;;;;;;;;;;;;;18.50;57.57;101262.63;5020523;28;19925;-93
2023/05/04 12:38:02;;;;;;;;;;;;;;;17.91;59.23;101250.22;5019138;28;19948;-93
2023/05/04 12:43:31;;;;;;;;;;;;;;;17.64;60.52;101235.47;5055507;22;19939;-91
2023/05/04 12:46:00;;;;;;;;;;;;;;;17.69;59.79;101232.16;5033399;28;19921;-90
2023/05/04 12:48:28;;;;;;;;;;;;;;;17.76;59.69;101222.19;5212175;22;21011;-89
2023/05/04 12:51:22;;;;;;;;;;;;;;;17.69;59.48;101230.28;4984197;28;20036;-90
2023/05/04 12:53:51;;;;;;;;;;;;;;;17.58;59.80;101229.97;5130435;22;19992;-93
2023/05/04 12:58:59;;;;;;;;;;;;;;;17.70;59.70;101223.81;5173086;23;19980;-91
2023/05/04 13:01:52;;;;;;;;;;;;;;;18.02;59.84;101221.63;5091712;23;19937;31
2023/05/04 13:04:43;;;;;;;;;;;;;;;18.32;58.49;101225.00;4974548;28;19938;-92
2023/05/04 13:07:36;;;;;;;;;;;;;;;18.22;59.55;101243.56;4966518;28;19938;-95
2023/05/04 13:10:04;;;;;;;;;;;;;;;17.70;59.86;101239.31;4958397;29;19938;-90
2023/05/04 13:18:25;;;;;;;;;;;;;;;17.78;60.75;101238.31;5026592;28;20021;-93